Morton S Bouchard Jr — WSE9678 — position and weather

sailwx.info

Track history (hours):
 
Tides and Currents Weather Stations Pressure Air Temp Water Temp Dewpoint Dewpoint Depression Visibility Wind Speed Wind Dir Waves Ship Positions

Morton S Bouchard Jr

Owner: BOUCHARD TRANSPORTATION CO INC, MELVILLE, NY. More information available from US FCC via Universal Licensing System and Coast Guard Vessel Documentation Center.

Last reported at 2015-Jul-29 02:33 UTC. Time now 2015-Jul-29 02:38 UTC.
Position N 40°60' W 073°26'.

Length 33 m; draft 6 m.

Type: Tug. MMSI: 367006550.

Date/timePositionNaut miles runAvg speedWind from/ knotsBaromVisibWave heightAir tempDewpointWater temp
2015-Jul-29 02:33N 40°60' W 073°26'4 3.6
2015-Jul-29 01:33N 41°01' W 073°21'6 6.1
2015-Jul-29 00:33N 40°59' W 073°28'3 1.4
2015-Jul-28 22:33N 41°00' W 073°25'8 7.7
2015-Jul-28 21:33N 41°03' W 073°16'8 7.9
2015-Jul-28 20:32N 41°06' W 073°06'8 7.7
2015-Jul-28 19:33N 41°10' W 072°58'7 7.3
2015-Jul-28 18:33N 41°17' W 072°55'1 0.7
2015-Jul-28 17:33N 41°18' W 072°54'0 0.0
2015-Jul-28 16:33N 41°18' W 072°54'0 0.0
2015-Jul-28 15:31N 41°18' W 072°54'0 0.0
2015-Jul-28 14:31N 41°18' W 072°54'0 0.0
2015-Jul-28 13:33N 41°18' W 072°54'0 0.0
2015-Jul-28 12:33N 41°18' W 072°54'0 0.0
2015-Jul-28 11:33N 41°18' W 072°54'0 0.0
2015-Jul-28 10:33N 41°18' W 072°54'0 0.0
2015-Jul-28 09:31N 41°18' W 072°54'0 0.0
2015-Jul-28 08:33N 41°18' W 072°54'0 0.0
2015-Jul-28 07:33N 41°18' W 072°54'0 0.0
2015-Jul-28 06:33N 41°18' W 072°54'0 0.0
2015-Jul-28 05:33N 41°18' W 072°54'3 2.5
2015-Jul-28 04:33N 41°15' W 072°55'4 4.1
2015-Jul-28 03:33N 41°12' W 072°51'6 5.6
2015-Jul-28 02:33N 41°11' W 072°44'6 6.1
2015-Jul-28 01:33N 41°11' W 072°36'5 4.8
2015-Jul-28 00:33N 41°10' W 072°30'6 5.6
2015-Jul-27 23:33N 41°12' W 072°23'6 5.9
2015-Jul-27 22:33N 41°13' W 072°15'7 7.0
2015-Jul-27 21:33N 41°15' W 072°06'10 9.9
2015-Jul-27 20:33N 41°16' W 071°53'9 9.2
2015-Jul-27 19:33N 41°17' W 071°41'9 8.5
2015-Jul-27 18:33N 41°18' W 071°29'9 8.5
2015-Jul-27 17:33N 41°21' W 071°19'9 8.7
2015-Jul-27 16:33N 41°24' W 071°08'8 8.1
2015-Jul-27 15:33N 41°28' W 070°58'8 8.4
2015-Jul-27 14:33N 41°32' W 070°49'6 5.0
2015-Jul-27 13:21N 41°36' W 070°43'7 9.1
2015-Jul-27 12:33N 41°43' W 070°39'42 5.2
2015-Jul-27 04:23N 42°21' W 071°02'2 2.0
2015-Jul-27 03:15N 42°24' W 071°01'107 2.6
2015-Jul-25 09:19N 40°45' W 071°57'4 5.1
2015-Jul-25 08:33N 40°42' W 072°01'5 5.2
2015-Jul-25 07:33N 40°39' W 072°05'6 5.1
2015-Jul-25 06:19N 40°34' W 072°11'9 5.2
2015-Jul-25 04:30N 40°28' W 072°20'95 5.9
2015-Jul-24 12:28N 39°22' W 073°48'9 6.5
2015-Jul-24 11:07N 39°15' W 073°56'4 6.5
2015-Jul-24 10:33N 39°13' W 073°60'7 6.6
2015-Jul-24 09:33N 39°08' W 074°05'7 6.7
2015-Jul-24 08:33N 39°03' W 074°12'7 6.6
2015-Jul-24 07:33N 38°59' W 074°18'7 6.6
2015-Jul-24 06:33N 38°54' W 074°24'24 6.0
2015-Jul-24 02:33N 38°46' W 074°53'6 6.5
2015-Jul-24 01:33N 38°48' W 075°01'7 6.9
2015-Jul-24 00:33N 38°54' W 075°05'5 5.3
2015-Jul-23 23:33N 38°59' W 075°08'9 8.7
2015-Jul-23 22:32N 39°07' W 075°12'8 8.2
2015-Jul-23 21:33N 39°13' W 075°18'7 7.1
2015-Jul-23 20:33N 39°19' W 075°24'6 6.0
2015-Jul-23 19:33N 39°23' W 075°29'6 5.7
2015-Jul-23 18:33N 39°28' W 075°34'6 6.2
2015-Jul-23 17:33N 39°34' W 075°33'2 2.0
2015-Jul-23 16:33N 39°35' W 075°36'0 0.0
2015-Jul-23 15:33N 39°35' W 075°36'0 0.0
2015-Jul-23 14:33N 39°35' W 075°36'0 0.0
2015-Jul-23 13:33N 39°35' W 075°36'0 0.0
2015-Jul-23 12:33N 39°35' W 075°36'0 0.0
2015-Jul-23 11:33N 39°35' W 075°36'0 0.0
2015-Jul-23 10:33N 39°35' W 075°36'0 0.0
2015-Jul-23 09:33N 39°35' W 075°36'0 0.0
2015-Jul-23 08:33N 39°35' W 075°36'0 0.0
2015-Jul-23 07:33N 39°35' W 075°36'0 0.0
2015-Jul-23 06:33N 39°35' W 075°36'0 0.0
2015-Jul-23 05:33N 39°35' W 075°36'0 0.0
2015-Jul-23 04:33N 39°35' W 075°36'0 0.0
2015-Jul-23 03:33N 39°35' W 075°36'0 0.0
2015-Jul-23 02:33N 39°35' W 075°36'0 0.0
2015-Jul-23 01:33N 39°35' W 075°36'0 0.0
2015-Jul-23 00:33N 39°35' W 075°36'0 0.0
2015-Jul-22 23:33N 39°35' W 075°36'0 0.0
2015-Jul-22 22:33N 39°35' W 075°36'0 0.0
2015-Jul-22 21:33N 39°35' W 075°36'0 0.0
2015-Jul-22 20:33N 39°35' W 075°36'0 0.0
2015-Jul-22 19:33N 39°35' W 075°36'0 0.0
2015-Jul-22 18:33N 39°35' W 075°36'0 0.0
2015-Jul-22 17:33N 39°35' W 075°36'0 0.0
2015-Jul-22 16:33N 39°35' W 075°36'0 0.0
2015-Jul-22 15:33N 39°35' W 075°36'0 0.0
2015-Jul-22 14:33N 39°35' W 075°36'0 0.0
2015-Jul-22 13:33N 39°35' W 075°36'0 0.0
2015-Jul-22 12:33N 39°35' W 075°36'0 0.0
2015-Jul-22 11:33N 39°35' W 075°36'3 2.7
2015-Jul-22 10:33N 39°33' W 075°33'0 0.2
2015-Jul-22 09:33N 39°33' W 075°33'0 0.1
2015-Jul-22 08:33N 39°33' W 075°33'0 0.1
2015-Jul-22 07:33N 39°33' W 075°33'0 0.0
2015-Jul-22 06:33N 39°33' W 075°33'0 0.1
2015-Jul-22 05:33N 39°33' W 075°33'0 0.1
2015-Jul-22 04:33N 39°33' W 075°33'0 0.0
2015-Jul-22 03:33N 39°33' W 075°33'0 0.0
2015-Jul-22 02:33N 39°33' W 075°33'0 0.0
2015-Jul-22 01:33N 39°33' W 075°33'0 0.0
2015-Jul-22 00:33N 39°33' W 075°33'0 0.0
2015-Jul-21 23:33N 39°33' W 075°33'0 0.1
2015-Jul-21 22:33N 39°33' W 075°33'0 0.1
2015-Jul-21 21:33N 39°33' W 075°33'0 0.0
2015-Jul-21 20:33N 39°33' W 075°33'0 0.0
2015-Jul-21 19:33N 39°33' W 075°33'0 0.0
2015-Jul-21 18:33N 39°33' W 075°33'0 0.0
2015-Jul-21 17:33N 39°33' W 075°33'0 0.0
2015-Jul-21 16:33N 39°33' W 075°33'0 0.1
2015-Jul-21 15:33N 39°33' W 075°33'3 3.4
2015-Jul-21 14:33N 39°30' W 075°34'7 6.7
2015-Jul-21 13:33N 39°24' W 075°29'7 6.5
2015-Jul-21 12:33N 39°19' W 075°24'6 6.3
2015-Jul-21 11:33N 39°14' W 075°18'6 6.2
2015-Jul-21 10:33N 39°09' W 075°14'7 7.0
2015-Jul-21 09:33N 39°03' W 075°10'8 8.0
2015-Jul-21 08:33N 38°56' W 075°05'8 8.4
2015-Jul-21 07:33N 38°48' W 075°02'9 8.7
2015-Jul-21 06:33N 38°40' W 074°58'9 9.5
2015-Jul-21 05:33N 38°30' W 074°58'10 9.9
2015-Jul-21 04:33N 38°20' W 074°58'1010.0
2015-Jul-21 03:33N 38°10' W 074°59'10 9.8
2015-Jul-21 02:33N 38°00' W 074°60'200 9.5
2015-Jul-20 05:31N 34°44' W 075°50'1210.4
2015-Jul-20 04:23N 34°36' W 075°60'910.5
2015-Jul-20 03:30N 34°29' W 076°07'1010.8
2015-Jul-20 02:32N 34°21' W 076°16'1111.0
2015-Jul-20 01:30N 34°14' W 076°27'1110.6
2015-Jul-20 00:31N 34°07' W 076°36'1010.2
2015-Jul-19 23:32N 34°01' W 076°46'1010.1
2015-Jul-19 22:33N 33°55' W 076°55'1210.2
2015-Jul-19 21:21N 33°47' W 077°06'1210.1
2015-Jul-19 20:12N 33°39' W 077°17'7 9.9
2015-Jul-19 19:31N 33°35' W 077°23'  
Track history (hours):
 
Tides and Currents Weather Stations Pressure Air Temp Water Temp Dewpoint Dewpoint Depression Visibility Wind Speed Wind Dir Waves Ship Positions

Morton S Bouchard Jr

Owner: BOUCHARD TRANSPORTATION CO INC, MELVILLE, NY. More information available from US FCC via Universal Licensing System and Coast Guard Vessel Documentation Center.

Last reported at 2015-Jul-29 02:33 UTC. Time now 2015-Jul-29 02:38 UTC.
Position N 40°60' W 073°26'.

Length 33 m; draft 6 m.

Type: Tug. MMSI: 367006550.

Date/timePositionNaut miles runAvg speedWind from/ knotsBaromVisibWave heightAir tempDewpointWater temp
2015-Jul-29 02:33N 40°60' W 073°26'4 3.6
2015-Jul-29 01:33N 41°01' W 073°21'6 6.1
2015-Jul-29 00:33N 40°59' W 073°28'3 1.4
2015-Jul-28 22:33N 41°00' W 073°25'8 7.7
2015-Jul-28 21:33N 41°03' W 073°16'8 7.9
2015-Jul-28 20:32N 41°06' W 073°06'8 7.7
2015-Jul-28 19:33N 41°10' W 072°58'7 7.3
2015-Jul-28 18:33N 41°17' W 072°55'1 0.7
2015-Jul-28 17:33N 41°18' W 072°54'0 0.0
2015-Jul-28 16:33N 41°18' W 072°54'0 0.0
2015-Jul-28 15:31N 41°18' W 072°54'0 0.0
2015-Jul-28 14:31N 41°18' W 072°54'0 0.0
2015-Jul-28 13:33N 41°18' W 072°54'0 0.0
2015-Jul-28 12:33N 41°18' W 072°54'0 0.0
2015-Jul-28 11:33N 41°18' W 072°54'0 0.0
2015-Jul-28 10:33N 41°18' W 072°54'0 0.0
2015-Jul-28 09:31N 41°18' W 072°54'0 0.0
2015-Jul-28 08:33N 41°18' W 072°54'0 0.0
2015-Jul-28 07:33N 41°18' W 072°54'0 0.0
2015-Jul-28 06:33N 41°18' W 072°54'0 0.0
2015-Jul-28 05:33N 41°18' W 072°54'3 2.5
2015-Jul-28 04:33N 41°15' W 072°55'4 4.1
2015-Jul-28 03:33N 41°12' W 072°51'6 5.6
2015-Jul-28 02:33N 41°11' W 072°44'6 6.1
2015-Jul-28 01:33N 41°11' W 072°36'5 4.8
2015-Jul-28 00:33N 41°10' W 072°30'6 5.6
2015-Jul-27 23:33N 41°12' W 072°23'6 5.9
2015-Jul-27 22:33N 41°13' W 072°15'7 7.0
2015-Jul-27 21:33N 41°15' W 072°06'10 9.9
2015-Jul-27 20:33N 41°16' W 071°53'9 9.2
2015-Jul-27 19:33N 41°17' W 071°41'9 8.5
2015-Jul-27 18:33N 41°18' W 071°29'9 8.5
2015-Jul-27 17:33N 41°21' W 071°19'9 8.7
2015-Jul-27 16:33N 41°24' W 071°08'8 8.1
2015-Jul-27 15:33N 41°28' W 070°58'8 8.4
2015-Jul-27 14:33N 41°32' W 070°49'6 5.0
2015-Jul-27 13:21N 41°36' W 070°43'7 9.1
2015-Jul-27 12:33N 41°43' W 070°39'42 5.2
2015-Jul-27 04:23N 42°21' W 071°02'2 2.0
2015-Jul-27 03:15N 42°24' W 071°01'107 2.6
2015-Jul-25 09:19N 40°45' W 071°57'4 5.1
2015-Jul-25 08:33N 40°42' W 072°01'5 5.2
2015-Jul-25 07:33N 40°39' W 072°05'6 5.1
2015-Jul-25 06:19N 40°34' W 072°11'9 5.2
2015-Jul-25 04:30N 40°28' W 072°20'95 5.9
2015-Jul-24 12:28N 39°22' W 073°48'9 6.5
2015-Jul-24 11:07N 39°15' W 073°56'4 6.5
2015-Jul-24 10:33N 39°13' W 073°60'7 6.6
2015-Jul-24 09:33N 39°08' W 074°05'7 6.7
2015-Jul-24 08:33N 39°03' W 074°12'7 6.6
2015-Jul-24 07:33N 38°59' W 074°18'7 6.6
2015-Jul-24 06:33N 38°54' W 074°24'24 6.0
2015-Jul-24 02:33N 38°46' W 074°53'6 6.5
2015-Jul-24 01:33N 38°48' W 075°01'7 6.9
2015-Jul-24 00:33N 38°54' W 075°05'5 5.3
2015-Jul-23 23:33N 38°59' W 075°08'9 8.7
2015-Jul-23 22:32N 39°07' W 075°12'8 8.2
2015-Jul-23 21:33N 39°13' W 075°18'7 7.1
2015-Jul-23 20:33N 39°19' W 075°24'6 6.0
2015-Jul-23 19:33N 39°23' W 075°29'6 5.7
2015-Jul-23 18:33N 39°28' W 075°34'6 6.2
2015-Jul-23 17:33N 39°34' W 075°33'2 2.0
2015-Jul-23 16:33N 39°35' W 075°36'0 0.0
2015-Jul-23 15:33N 39°35' W 075°36'0 0.0
2015-Jul-23 14:33N 39°35' W 075°36'0 0.0
2015-Jul-23 13:33N 39°35' W 075°36'0 0.0
2015-Jul-23 12:33N 39°35' W 075°36'0 0.0
2015-Jul-23 11:33N 39°35' W 075°36'0 0.0
2015-Jul-23 10:33N 39°35' W 075°36'0 0.0
2015-Jul-23 09:33N 39°35' W 075°36'0 0.0
2015-Jul-23 08:33N 39°35' W 075°36'0 0.0
2015-Jul-23 07:33N 39°35' W 075°36'0 0.0
2015-Jul-23 06:33N 39°35' W 075°36'0 0.0
2015-Jul-23 05:33N 39°35' W 075°36'0 0.0
2015-Jul-23 04:33N 39°35' W 075°36'0 0.0
2015-Jul-23 03:33N 39°35' W 075°36'0 0.0
2015-Jul-23 02:33N 39°35' W 075°36'0 0.0
2015-Jul-23 01:33N 39°35' W 075°36'0 0.0
2015-Jul-23 00:33N 39°35' W 075°36'0 0.0
2015-Jul-22 23:33N 39°35' W 075°36'0 0.0
2015-Jul-22 22:33N 39°35' W 075°36'0 0.0
2015-Jul-22 21:33N 39°35' W 075°36'0 0.0
2015-Jul-22 20:33N 39°35' W 075°36'0 0.0
2015-Jul-22 19:33N 39°35' W 075°36'0 0.0
2015-Jul-22 18:33N 39°35' W 075°36'0 0.0
2015-Jul-22 17:33N 39°35' W 075°36'0 0.0
2015-Jul-22 16:33N 39°35' W 075°36'0 0.0
2015-Jul-22 15:33N 39°35' W 075°36'0 0.0
2015-Jul-22 14:33N 39°35' W 075°36'0 0.0
2015-Jul-22 13:33N 39°35' W 075°36'0 0.0
2015-Jul-22 12:33N 39°35' W 075°36'0 0.0
2015-Jul-22 11:33N 39°35' W 075°36'3 2.7
2015-Jul-22 10:33N 39°33' W 075°33'0 0.2
2015-Jul-22 09:33N 39°33' W 075°33'0 0.1
2015-Jul-22 08:33N 39°33' W 075°33'0 0.1
2015-Jul-22 07:33N 39°33' W 075°33'0 0.0
2015-Jul-22 06:33N 39°33' W 075°33'0 0.1
2015-Jul-22 05:33N 39°33' W 075°33'0 0.1
2015-Jul-22 04:33N 39°33' W 075°33'0 0.0
2015-Jul-22 03:33N 39°33' W 075°33'0 0.0
2015-Jul-22 02:33N 39°33' W 075°33'0 0.0
2015-Jul-22 01:33N 39°33' W 075°33'0 0.0
2015-Jul-22 00:33N 39°33' W 075°33'0 0.0
2015-Jul-21 23:33N 39°33' W 075°33'0 0.1
2015-Jul-21 22:33N 39°33' W 075°33'0 0.1
2015-Jul-21 21:33N 39°33' W 075°33'0 0.0
2015-Jul-21 20:33N 39°33' W 075°33'0 0.0
2015-Jul-21 19:33N 39°33' W 075°33'0 0.0
2015-Jul-21 18:33N 39°33' W 075°33'0 0.0
2015-Jul-21 17:33N 39°33' W 075°33'0 0.0
2015-Jul-21 16:33N 39°33' W 075°33'0 0.1
2015-Jul-21 15:33N 39°33' W 075°33'3 3.4
2015-Jul-21 14:33N 39°30' W 075°34'7 6.7
2015-Jul-21 13:33N 39°24' W 075°29'7 6.5
2015-Jul-21 12:33N 39°19' W 075°24'6 6.3
2015-Jul-21 11:33N 39°14' W 075°18'6 6.2
2015-Jul-21 10:33N 39°09' W 075°14'7 7.0
2015-Jul-21 09:33N 39°03' W 075°10'8 8.0
2015-Jul-21 08:33N 38°56' W 075°05'8 8.4
2015-Jul-21 07:33N 38°48' W 075°02'9 8.7
2015-Jul-21 06:33N 38°40' W 074°58'9 9.5
2015-Jul-21 05:33N 38°30' W 074°58'10 9.9
2015-Jul-21 04:33N 38°20' W 074°58'1010.0
2015-Jul-21 03:33N 38°10' W 074°59'10 9.8
2015-Jul-21 02:33N 38°00' W 074°60'200 9.5
2015-Jul-20 05:31N 34°44' W 075°50'1210.4
2015-Jul-20 04:23N 34°36' W 075°60'910.5
2015-Jul-20 03:30N 34°29' W 076°07'1010.8
2015-Jul-20 02:32N 34°21' W 076°16'1111.0
2015-Jul-20 01:30N 34°14' W 076°27'1110.6
2015-Jul-20 00:31N 34°07' W 076°36'1010.2
2015-Jul-19 23:32N 34°01' W 076°46'1010.1
2015-Jul-19 22:33N 33°55' W 076°55'1210.2
2015-Jul-19 21:21N 33°47' W 077°06'1210.1
2015-Jul-19 20:12N 33°39' W 077°17'7 9.9
2015-Jul-19 19:31N 33°35' W 077°23'  

Dump ship's entire track history